Time;durP1;ratioP1;P1;durP2;ratioP2;P2;SDS_P1;SDS_P2;PMS_P1;PMS_P2;Temp;Humidity;BMP_temperature;BMP_pressure;BME280_temperature;BME280_humidity;BME280_pressure;Samples;Min_cycle;Max_cycle;Signal;HPM_P1;HPM_P2
2024/01/04 00:00:09;;;;;;;11.73;5.90;;;;;;;;;;5026675;28;19920;-72
2024/01/04 00:02:35;;;;;;;11.02;5.25;;;;;;;;;;5024993;28;20033;-73
2024/01/04 00:05:03;;;;;;;10.05;5.20;;;;;;;;;;5025199;28;20028;-73
2024/01/04 00:07:31;;;;;;;11.63;5.50;;;;;;;;;;5027710;28;20029;-73
2024/01/04 00:09:58;;;;;;;9.88;4.88;;;;;;;;;;5025757;28;20057;-72
2024/01/04 00:12:24;;;;;;;10.70;5.20;;;;;;;;;;5025830;28;20032;-73
2024/01/04 00:14:50;;;;;;;10.68;5.68;;;;;;;;;;5023628;28;20444;-73
2024/01/04 00:17:17;;;;;;;11.07;4.80;;;;;;;;;;5024436;28;20037;-74
2024/01/04 00:19:43;;;;;;;11.35;4.63;;;;;;;;;;5021701;28;20079;-73
2024/01/04 00:22:10;;;;;;;10.38;4.65;;;;;;;;;;5022289;28;20044;-74
2024/01/04 00:24:38;;;;;;;11.50;4.43;;;;;;;;;;5023808;28;20068;-73
2024/01/04 00:27:05;;;;;;;9.82;4.20;;;;;;;;;;5024005;28;20093;-73
2024/01/04 00:29:31;;;;;;;10.52;5.05;;;;;;;;;;5024286;28;20077;-73
2024/01/04 00:31:58;;;;;;;11.00;5.25;;;;;;;;;;5033888;28;20029;-73
2024/01/04 00:34:24;;;;;;;10.65;5.43;;;;;;;;;;5010932;28;20037;-74
2024/01/04 00:36:50;;;;;;;12.70;5.88;;;;;;;;;;5017988;28;20481;-74
2024/01/04 00:39:16;;;;;;;;;;;;;;;;;;5024998;28;20056;-74
2024/01/04 00:41:43;;;;;;;13.27;7.07;;;;;;;;;;5023318;28;19956;-73
2024/01/04 00:44:09;;;;;;;22.95;14.95;;;;;;;;;;5022623;28;20051;-74
2024/01/04 00:46:37;;;;;;;20.88;13.80;;;;;;;;;;5023070;28;20029;-74
2024/01/04 00:49:04;;;;;;;16.88;10.38;;;;;;;;;;5021821;28;20465;-72
2024/01/04 00:51:31;;;;;;;14.43;7.25;;;;;;;;;;5034054;28;20038;-72
2024/01/04 00:53:59;;;;;;;14.82;8.32;;;;;;;;;;5020809;28;20059;-73
2024/01/04 00:56:30;;;;;;;20.00;11.68;;;;;;;;;;5026335;28;20032;-72
2024/01/04 00:58:57;;;;;;;16.52;9.98;;;;;;;;;;5021194;28;20047;-72
2024/01/04 01:01:23;;;;;;;17.75;9.82;;;;;;;;;;5025097;28;20041;-72
2024/01/04 01:03:49;;;;;;;17.00;10.18;;;;;;;;;;5021043;28;20033;-74
2024/01/04 01:06:15;;;;;;;14.60;8.52;;;;;;;;;;5022305;28;20064;-74
2024/01/04 01:08:41;;;;;;;14.52;8.57;;;;;;;;;;5017661;28;20092;-74
2024/01/04 01:11:08;;;;;;;13.88;8.43;;;;;;;;;;5025448;28;20891;-74
2024/01/04 01:13:34;;;;;;;14.05;7.85;;;;;;;;;;5021751;28;20613;-73
2024/01/04 01:16:01;;;;;;;;;;;;;;;;;;5034601;28;20044;-73
2024/01/04 01:18:28;;;;;;;14.65;8.45;;;;;;;;;;5032295;28;19913;-73
2024/01/04 01:20:54;;;;;;;;;;;;;;;;;;5036706;28;20032;-73
2024/01/04 01:23:20;;;;;;;14.18;8.63;;;;;;;;;;5024789;28;20318;-72
2024/01/04 01:25:46;;;;;;;15.68;9.15;;;;;;;;;;5020121;28;20415;-73
2024/01/04 01:28:13;;;;;;;15.60;9.48;;;;;;;;;;5025561;28;20048;-74
2024/01/04 01:30:41;;;;;;;15.57;8.82;;;;;;;;;;5024529;28;20120;-72
2024/01/04 01:33:07;;;;;;;15.73;9.80;;;;;;;;;;5032930;28;20037;-72
2024/01/04 01:35:35;;;;;;;17.17;9.50;;;;;;;;;;5026559;28;20090;-74
2024/01/04 01:38:02;;;;;;;15.25;8.63;;;;;;;;;;5020505;28;20133;-72
2024/01/04 01:40:28;;;;;;;14.93;8.60;;;;;;;;;;5026402;28;20033;-72
2024/01/04 01:42:54;;;;;;;14.88;8.73;;;;;;;;;;5025334;28;20379;-72
2024/01/04 01:45:21;;;;;;;14.45;8.60;;;;;;;;;;5026173;28;20028;-72
2024/01/04 01:47:48;;;;;;;14.38;8.15;;;;;;;;;;5033761;28;20504;-73
2024/01/04 01:50:18;;;;;;;12.68;7.47;;;;;;;;;;5026130;28;20029;-73
2024/01/04 01:52:45;;;;;;;12.75;7.35;;;;;;;;;;5023312;28;20061;-72
2024/01/04 01:55:12;;;;;;;12.63;6.93;;;;;;;;;;5025253;28;20040;-72
2024/01/04 01:57:38;;;;;;;11.30;5.97;;;;;;;;;;5029663;28;20029;-73
2024/01/04 02:00:05;;;;;;;11.50;6.15;;;;;;;;;;5024032;28;20029;-73
2024/01/04 02:02:32;;;;;;;10.00;5.38;;;;;;;;;;5037278;28;20064;-73
2024/01/04 02:04:58;;;;;;;9.85;5.13;;;;;;;;;;5037677;28;20093;-74
2024/01/04 02:07:24;;;;;;;12.32;5.15;;;;;;;;;;5028047;28;20572;-72
2024/01/04 02:09:50;;;;;;;8.68;4.13;;;;;;;;;;5022850;28;20640;-72
2024/01/04 02:12:16;;;;;;;11.50;4.72;;;;;;;;;;5029675;28;20078;-72
2024/01/04 02:14:44;;;;;;;;;;;;;;;;;;5035163;28;20033;-72
2024/01/04 02:17:10;;;;;;;10.40;4.88;;;;;;;;;;5024643;28;20350;-73
2024/01/04 02:19:39;;;;;;;10.88;4.72;;;;;;;;;;5028511;28;20117;-73
2024/01/04 02:22:06;;;;;;;9.20;4.60;;;;;;;;;;5025600;28;20033;-73
2024/01/04 02:24:34;;;;;;;10.38;5.10;;;;;;;;;;5024868;28;20270;-74
2024/01/04 02:27:01;;;;;;;9.80;4.55;;;;;;;;;;5024864;28;20040;-73
2024/01/04 02:29:27;;;;;;;10.45;4.38;;;;;;;;;;5023027;28;20647;-73
2024/01/04 02:31:53;;;;;;;9.13;3.85;;;;;;;;;;5025934;28;20029;-73
2024/01/04 02:34:19;;;;;;;8.73;3.50;;;;;;;;;;5025012;28;20044;-73
2024/01/04 02:36:45;;;;;;;7.70;2.95;;;;;;;;;;5020818;28;20120;-73
2024/01/04 02:39:12;;;;;;;8.32;3.13;;;;;;;;;;5043015;28;20053;-74
2024/01/04 02:41:40;;;;;;;9.48;3.63;;;;;;;;;;5031487;28;20087;-73
2024/01/04 02:44:07;;;;;;;7.65;3.28;;;;;;;;;;5031207;28;20132;-74
2024/01/04 02:46:35;;;;;;;8.63;3.88;;;;;;;;;;5029622;28;20036;-73
2024/01/04 02:49:02;;;;;;;8.80;4.00;;;;;;;;;;5024775;28;20108;-73
2024/01/04 02:51:28;;;;;;;8.63;3.00;;;;;;;;;;5026055;28;20028;-73
2024/01/04 02:53:54;;;;;;;8.15;3.58;;;;;;;;;;5024132;28;20044;-73
2024/01/04 02:56:20;;;;;;;9.55;3.78;;;;;;;;;;5026457;28;20020;-73
2024/01/04 02:58:46;;;;;;;9.60;4.35;;;;;;;;;;5024310;28;20044;-73
2024/01/04 03:01:18;;;;;;;9.15;4.32;;;;;;;;;;5029725;28;20021;-73
2024/01/04 03:03:46;;;;;;;9.48;4.20;;;;;;;;;;5021997;28;20037;-73
2024/01/04 03:06:13;;;;;;;8.50;3.90;;;;;;;;;;5019897;28;20033;-73
2024/01/04 03:08:41;;;;;;;8.30;3.55;;;;;;;;;;5041584;28;20033;-73
2024/01/04 03:11:09;;;;;;;9.00;3.80;;;;;;;;;;5024012;28;20113;-73
2024/01/04 03:13:35;;;;;;;8.35;3.55;;;;;;;;;;5025372;28;20399;-73
2024/01/04 03:16:02;;;;;;;9.70;3.78;;;;;;;;;;5021879;28;20164;-72
2024/01/04 03:18:28;;;;;;;10.30;3.80;;;;;;;;;;5023769;28;20032;-73
2024/01/04 03:20:54;;;;;;;11.73;4.22;;;;;;;;;;5023764;28;20027;-73
2024/01/04 03:23:21;;;;;;;9.95;3.70;;;;;;;;;;5026222;28;20041;-74
2024/01/04 03:25:47;;;;;;;10.30;3.92;;;;;;;;;;5019316;28;20036;-73
2024/01/04 03:28:14;;;;;;;10.23;3.33;;;;;;;;;;5041576;28;20235;-73
2024/01/04 03:30:42;;;;;;;9.23;3.88;;;;;;;;;;5026909;28;20029;-73
2024/01/04 03:33:09;;;;;;;10.43;4.13;;;;;;;;;;5028678;28;20060;-74
2024/01/04 03:35:35;;;;;;;11.15;3.92;;;;;;;;;;5026333;28;20044;-73
2024/01/04 03:38:01;;;;;;;8.93;4.00;;;;;;;;;;5024547;28;20159;-74
2024/01/04 03:40:28;;;;;;;11.57;4.05;;;;;;;;;;5025835;28;20072;-73
2024/01/04 03:42:54;;;;;;;9.57;4.30;;;;;;;;;;5021012;28;20029;-72
2024/01/04 03:45:21;;;;;;;;;;;;;;;;;;5022651;28;20021;-72
2024/01/04 03:47:47;;;;;;;10.80;4.57;;;;;;;;;;5015476;28;19932;-72
2024/01/04 03:50:13;;;;;;;10.65;4.88;;;;;;;;;;5022042;28;20033;-72
2024/01/04 03:52:40;;;;;;;11.00;4.57;;;;;;;;;;5023702;28;20021;-73
2024/01/04 03:55:07;;;;;;;10.38;5.03;;;;;;;;;;5029557;28;20533;-73
2024/01/04 03:57:33;;;;;;;11.27;4.78;;;;;;;;;;5018057;28;20057;-72
2024/01/04 04:00:01;;;;;;;12.82;5.18;;;;;;;;;;5023336;28;20940;-73
2024/01/04 04:02:27;;;;;;;16.52;4.68;;;;;;;;;;5026449;28;20106;-73
2024/01/04 04:04:56;;;;;;;11.63;4.15;;;;;;;;;;5023034;28;20037;-73
2024/01/04 04:07:22;;;;;;;12.35;4.90;;;;;;;;;;5028235;28;20025;-73
2024/01/04 04:09:48;;;;;;;13.80;5.20;;;;;;;;;;5018736;28;20037;-71
2024/01/04 04:12:14;;;;;;;13.55;5.35;;;;;;;;;;5020682;28;20491;-72
2024/01/04 04:14:44;;;;;;;11.80;4.85;;;;;;;;;;5017470;28;20558;-72
2024/01/04 04:17:10;;;;;;;11.25;5.20;;;;;;;;;;5019058;28;20041;-72
2024/01/04 04:19:37;;;;;;;11.15;5.15;;;;;;;;;;5021725;28;20067;-73
2024/01/04 04:22:05;;;;;;;12.10;5.47;;;;;;;;;;5019735;28;20028;-73
2024/01/04 04:24:31;;;;;;;11.38;4.97;;;;;;;;;;5023588;28;20045;-73
2024/01/04 04:26:57;;;;;;;;;;;;;;;;;;5024814;28;20545;-72
2024/01/04 04:29:23;;;;;;;10.43;4.32;;;;;;;;;;5024856;28;19917;-72
2024/01/04 04:31:49;;;;;;;13.02;5.10;;;;;;;;;;5018193;28;20033;-72
2024/01/04 04:34:15;;;;;;;11.60;5.03;;;;;;;;;;5026629;28;20772;-72
2024/01/04 04:36:41;;;;;;;12.73;5.18;;;;;;;;;;5022614;28;20029;-73
2024/01/04 04:39:09;;;;;;;11.93;4.55;;;;;;;;;;5056768;28;20379;-73
2024/01/04 04:41:36;;;;;;;10.63;4.85;;;;;;;;;;5036889;28;20033;-73
2024/01/04 04:44:02;;;;;;;12.85;4.82;;;;;;;;;;5019889;28;20056;-72
2024/01/04 04:46:28;;;;;;;13.10;4.68;;;;;;;;;;5025206;28;20308;-72
2024/01/04 04:48:56;;;;;;;12.88;5.00;;;;;;;;;;5034918;28;20185;-73
2024/01/04 04:51:22;;;;;;;12.25;4.40;;;;;;;;;;5021601;28;20033;-72
2024/01/04 04:53:49;;;;;;;13.43;5.28;;;;;;;;;;5022022;28;20025;-72
2024/01/04 04:56:15;;;;;;;11.95;5.15;;;;;;;;;;5022233;28;20037;-73
2024/01/04 04:58:42;;;;;;;13.10;5.30;;;;;;;;;;5015500;28;20033;-73
2024/01/04 05:01:09;;;;;;;10.82;4.50;;;;;;;;;;5052775;28;20395;-72
2024/01/04 05:03:36;;;;;;;12.48;4.72;;;;;;;;;;5023080;28;20029;-72
2024/01/04 05:06:02;;;;;;;10.98;4.65;;;;;;;;;;5021635;28;20104;-72
2024/01/04 05:08:28;;;;;;;;;;;;;;;;;;5020860;28;20503;-72
2024/01/04 05:10:54;;;;;;;10.75;4.20;;;;;;;;;;5015030;28;20656;-72
2024/01/04 05:13:21;;;;;;;10.25;4.25;;;;;;;;;;5016894;28;20088;-72
2024/01/04 05:15:47;;;;;;;10.50;4.28;;;;;;;;;;5032749;28;20128;-73
2024/01/04 05:18:15;;;;;;;11.02;4.25;;;;;;;;;;5016743;28;20044;-73
2024/01/04 05:20:41;;;;;;;10.38;4.20;;;;;;;;;;5022865;28;20029;-72
2024/01/04 05:23:09;;;;;;;10.80;4.35;;;;;;;;;;5027554;28;20033;-73
2024/01/04 05:25:36;;;;;;;11.85;4.40;;;;;;;;;;5020743;28;20048;-73
2024/01/04 05:28:02;;;;;;;10.98;4.15;;;;;;;;;;5016799;28;20072;-72
2024/01/04 05:30:29;;;;;;;9.90;4.35;;;;;;;;;;5027113;28;20136;-73
2024/01/04 05:32:55;;;;;;;11.82;4.28;;;;;;;;;;5017987;28;20052;-72
2024/01/04 05:35:21;;;;;;;15.88;5.00;;;;;;;;;;5037435;28;20057;-72
2024/01/04 05:37:47;;;;;;;11.43;4.88;;;;;;;;;;5022315;28;20115;-72
2024/01/04 05:40:14;;;;;;;12.15;4.70;;;;;;;;;;5024336;28;20029;-73
2024/01/04 05:42:40;;;;;;;13.10;4.97;;;;;;;;;;5049605;28;20063;-71
2024/01/04 05:45:08;;;;;;;13.60;4.63;;;;;;;;;;5026815;28;20044;-73
2024/01/04 05:47:34;;;;;;;12.63;4.97;;;;;;;;;;5026741;28;20021;-73
2024/01/04 05:50:00;;;;;;;13.38;5.85;;;;;;;;;;5036363;28;20029;-73
2024/01/04 05:52:26;;;;;;;13.35;5.32;;;;;;;;;;5029954;28;20025;-73
2024/01/04 05:54:53;;;;;;;12.05;4.75;;;;;;;;;;5026974;28;20048;-73
2024/01/04 05:57:19;;;;;;;12.82;4.95;;;;;;;;;;5022568;28;20037;-73
2024/01/04 05:59:46;;;;;;;12.05;5.70;;;;;;;;;;5022273;28;20138;-73
2024/01/04 06:02:13;;;;;;;12.93;5.65;;;;;;;;;;5029295;28;20625;-72
2024/01/04 06:04:39;;;;;;;14.35;5.85;;;;;;;;;;5029409;28;20579;-73
2024/01/04 06:07:07;;;;;;;15.55;5.70;;;;;;;;;;5034984;28;20034;-75
2024/01/04 06:09:33;;;;;;;22.58;6.15;;;;;;;;;;5032521;28;20029;-72
2024/01/04 06:11:59;;;;;;;;;;;;;;;;;;5035123;28;21612;-72
2024/01/04 06:14:30;;;;;;;12.90;5.75;;;;;;;;;;5034878;28;19913;-73
2024/01/04 06:16:57;;;;;;;14.60;5.30;;;;;;;;;;5029387;28;20029;-75
2024/01/04 06:19:24;;;;;;;12.82;5.90;;;;;;;;;;5029699;28;20558;-73
2024/01/04 06:21:50;;;;;;;13.68;5.88;;;;;;;;;;5031135;28;20029;-73
2024/01/04 06:24:16;;;;;;;13.10;4.97;;;;;;;;;;5027712;28;20029;-72
2024/01/04 06:26:43;;;;;;;15.07;4.97;;;;;;;;;;5026729;28;20025;-72
2024/01/04 06:29:11;;;;;;;11.68;4.90;;;;;;;;;;5027845;28;20049;-74
2024/01/04 06:31:39;;;;;;;11.65;4.45;;;;;;;;;;5029044;28;20112;-73
2024/01/04 06:34:05;;;;;;;12.93;4.50;;;;;;;;;;5033059;28;20047;-72
2024/01/04 06:36:31;;;;;;;12.45;3.83;;;;;;;;;;5032867;28;20033;-73
2024/01/04 06:38:57;;;;;;;12.13;5.10;;;;;;;;;;5028184;28;20037;-73
2024/01/04 06:41:23;;;;;;;14.38;5.30;;;;;;;;;;5027029;28;20029;-73
2024/01/04 06:43:49;;;;;;;;;;;;;;;;;;5023099;28;20045;-73
2024/01/04 06:46:16;;;;;;;13.27;5.68;;;;;;;;;;5022319;28;19920;-72
2024/01/04 06:48:42;;;;;;;;;;;;;;;;;;5024473;28;20025;-73
2024/01/04 06:51:09;;;;;;;12.10;4.97;;;;;;;;;;5020685;28;20333;-74
2024/01/04 06:53:38;;;;;;;12.10;4.53;;;;;;;;;;5025246;28;20698;-72
2024/01/04 06:56:04;;;;;;;12.57;4.82;;;;;;;;;;5022080;28;20029;-71
2024/01/04 06:58:30;;;;;;;;;;;;;;;;;;5030074;28;20114;-72
2024/01/04 07:00:56;;;;;;;12.52;5.10;;;;;;;;;;5026718;28;19919;-74
2024/01/04 07:03:23;;;;;;;13.23;5.05;;;;;;;;;;5024464;28;20030;-73
2024/01/04 07:05:49;;;;;;;13.90;5.43;;;;;;;;;;5026532;28;20037;-73
2024/01/04 07:08:15;;;;;;;11.60;4.72;;;;;;;;;;5027999;28;20033;-72
2024/01/04 07:10:43;;;;;;;12.55;5.05;;;;;;;;;;5023816;28;20376;-72
2024/01/04 07:13:12;;;;;;;11.23;5.10;;;;;;;;;;5054140;28;20037;-73
2024/01/04 07:15:39;;;;;;;12.80;5.47;;;;;;;;;;5022335;28;20068;-73
2024/01/04 07:18:06;;;;;;;12.45;4.95;;;;;;;;;;5022941;28;20037;-73
2024/01/04 07:20:33;;;;;;;12.38;4.40;;;;;;;;;;5023747;28;20457;-74
2024/01/04 07:22:59;;;;;;;13.35;4.75;;;;;;;;;;5018853;28;20037;-72
2024/01/04 07:25:25;;;;;;;;;;;;;;;;;;5025456;28;20144;-74
2024/01/04 07:27:52;;;;;;;22.90;5.25;;;;;;;;;;5027866;28;19917;-73
2024/01/04 07:30:18;;;;;;;17.30;6.35;;;;;;;;;;5027914;28;20032;-73
2024/01/04 07:32:44;;;;;;;14.57;5.85;;;;;;;;;;5035719;28;20094;-73
2024/01/04 07:35:12;;;;;;;14.90;6.38;;;;;;;;;;5034853;28;20053;-73
2024/01/04 07:37:39;;;;;;;15.25;6.30;;;;;;;;;;5027362;28;20029;-73
2024/01/04 07:40:05;;;;;;;18.52;6.55;;;;;;;;;;5020787;28;20017;-73
2024/01/04 07:42:31;;;;;;;16.02;6.22;;;;;;;;;;5024151;28;20082;-72
2024/01/04 07:44:57;;;;;;;13.50;5.90;;;;;;;;;;5019503;28;20044;-72
2024/01/04 07:47:23;;;;;;;14.23;6.65;;;;;;;;;;5019677;28;20064;-73
2024/01/04 07:49:50;;;;;;;16.92;6.63;;;;;;;;;;5023127;28;20663;-73
2024/01/04 07:52:16;;;;;;;20.20;7.28;;;;;;;;;;5022537;28;20977;-71
2024/01/04 07:54:43;;;;;;;15.95;7.78;;;;;;;;;;5021760;28;20021;-71
2024/01/04 07:57:12;;;;;;;16.77;7.50;;;;;;;;;;5019608;28;20141;-72
2024/01/04 07:59:40;;;;;;;18.80;7.82;;;;;;;;;;5021737;28;20029;-74
2024/01/04 08:02:06;;;;;;;19.05;9.20;;;;;;;;;;5019895;28;20057;-72
2024/01/04 08:04:32;;;;;;;;;;;;;;;;;;5019659;28;20038;-72
2024/01/04 08:06:58;;;;;;;19.00;9.30;;;;;;;;;;5017895;28;20008;-71
2024/01/04 08:09:24;;;;;;;;;;;;;;;;;;5037784;28;20018;-71
2024/01/04 08:11:50;;;;;;;23.65;11.05;;;;;;;;;;5022332;28;19936;-72
2024/01/04 08:14:16;;;;;;;23.17;11.30;;;;;;;;;;5020907;28;20828;-74
2024/01/04 08:16:44;;;;;;;17.58;9.32;;;;;;;;;;5018004;28;20043;-72
2024/01/04 08:19:12;;;;;;;22.10;9.88;;;;;;;;;;5026688;28;20044;-74
2024/01/04 08:21:38;;;;;;;21.10;9.45;;;;;;;;;;5023707;28;20036;-73
2024/01/04 08:24:04;;;;;;;;;;;;;;;;;;5019442;28;20029;-73
2024/01/04 08:26:30;;;;;;;17.75;8.30;;;;;;;;;;5022799;28;19943;-73
2024/01/04 08:28:56;;;;;;;;;;;;;;;;;;5015095;28;20041;-73
2024/01/04 08:31:23;;;;;;;19.42;8.55;;;;;;;;;;5021339;28;20093;-73
2024/01/04 08:33:49;;;;;;;;;;;;;;;;;;5018634;28;20075;-73
2024/01/04 08:36:15;;;;;;;16.15;7.88;;;;;;;;;;5024812;28;19955;-73
2024/01/04 08:38:41;;;;;;;;;;;;;;;;;;5022110;28;20033;-73
2024/01/04 08:41:07;;;;;;;16.65;7.32;;;;;;;;;;5023576;28;19919;-73
2024/01/04 08:43:33;;;;;;;20.20;8.20;;;;;;;;;;5025447;28;20045;-73
2024/01/04 08:45:59;;;;;;;;;;;;;;;;;;5024984;28;20025;-72
2024/01/04 08:48:25;;;;;;;20.17;8.98;;;;;;;;;;5025858;28;20706;-72
2024/01/04 08:50:51;;;;;;;;;;;;;;;;;;5021380;28;20032;-71
2024/01/04 08:53:20;;;;;;;21.63;9.15;;;;;;;;;;5027494;28;20049;-73
2024/01/04 08:55:47;;;;;;;17.98;9.15;;;;;;;;;;5019474;28;20053;-73
2024/01/04 08:58:15;;;;;;;19.58;8.48;;;;;;;;;;5027748;28;20036;-72
2024/01/04 09:00:43;;;;;;;17.60;7.53;;;;;;;;;;5019593;28;20052;-72
2024/01/04 09:03:09;;;;;;;17.13;7.32;;;;;;;;;;5020519;28;20033;-72
2024/01/04 09:05:35;;;;;;;17.27;6.68;;;;;;;;;;5022358;28;20144;-71
2024/01/04 09:08:02;;;;;;;18.45;6.85;;;;;;;;;;5020681;28;20492;-72
2024/01/04 09:10:31;;;;;;;14.65;6.28;;;;;;;;;;5024984;28;20033;-72
2024/01/04 09:12:57;;;;;;;16.27;6.65;;;;;;;;;;5017155;28;20121;-72
2024/01/04 09:15:25;;;;;;;;;;;;;;;;;;5022960;28;20025;-72
2024/01/04 09:17:51;;;;;;;;;;;;;;;;;;5015052;28;20177;-72
2024/01/04 09:20:17;;;;;;;19.25;6.53;;;;;;;;;;5018655;28;20379;-73
2024/01/04 09:22:44;;;;;;;14.35;5.15;;;;;;;;;;5019306;28;20057;-73
2024/01/04 09:25:10;;;;;;;13.60;5.65;;;;;;;;;;5020996;28;20037;-73
2024/01/04 09:27:36;;;;;;;11.88;4.68;;;;;;;;;;5026598;28;20087;-72
2024/01/04 09:30:02;;;;;;;;;;;;;;;;;;5018726;28;20108;-72
2024/01/04 09:32:29;;;;;;;16.27;5.03;;;;;;;;;;5020909;28;19909;-72
2024/01/04 09:34:56;;;;;;;13.57;5.03;;;;;;;;;;5016451;28;20061;-74
2024/01/04 09:37:22;;;;;;;15.77;4.45;;;;;;;;;;5021079;28;20025;-71
2024/01/04 09:39:48;;;;;;;;;;;;;;;;;;5017800;28;20069;-71
2024/01/04 09:42:17;;;;;;;12.38;4.80;;;;;;;;;;5021896;28;20006;-72
2024/01/04 09:44:48;;;;;;;11.23;4.35;;;;;;;;;;5014323;28;20033;-72
2024/01/04 09:47:14;;;;;;;16.25;4.80;;;;;;;;;;5022219;28;20021;-71
2024/01/04 09:49:42;;;;;;;11.98;4.25;;;;;;;;;;5023358;28;20588;-71
2024/01/04 09:52:09;;;;;;;11.13;4.00;;;;;;;;;;5020281;28;20036;-72
2024/01/04 09:54:38;;;;;;;13.57;4.95;;;;;;;;;;5020992;28;20029;-72
2024/01/04 09:57:07;;;;;;;13.57;5.78;;;;;;;;;;5019676;28;20143;-74
2024/01/04 09:59:33;;;;;;;14.52;5.80;;;;;;;;;;5020439;28;20042;-75
2024/01/04 10:02:00;;;;;;;;;;;;;;;;;;5022576;28;20158;-72
2024/01/04 10:04:26;;;;;;;17.95;9.73;;;;;;;;;;5025224;28;19928;-74
2024/01/04 10:06:55;;;;;;;15.90;8.00;;;;;;;;;;5023995;28;20102;-73
2024/01/04 10:09:25;;;;;;;14.50;6.25;;;;;;;;;;5023772;28;20029;-73
2024/01/04 10:11:54;;;;;;;14.13;5.63;;;;;;;;;;5020746;28;20045;-73
2024/01/04 10:14:21;;;;;;;14.70;5.25;;;;;;;;;;5019644;28;20120;-73
2024/01/04 10:16:48;;;;;;;15.50;5.20;;;;;;;;;;5020054;28;20038;-73
2024/01/04 10:19:14;;;;;;;13.75;5.40;;;;;;;;;;5026221;28;20108;-72
2024/01/04 10:21:41;;;;;;;15.57;5.63;;;;;;;;;;5022720;28;20118;-72
2024/01/04 10:24:07;;;;;;;;;;;;;;;;;;5023337;28;20060;-74
2024/01/04 10:26:33;;;;;;;14.98;6.07;;;;;;;;;;5027697;28;20003;-74
2024/01/04 10:29:00;;;;;;;14.45;5.88;;;;;;;;;;5039091;28;20108;-73
2024/01/04 10:31:28;;;;;;;17.58;6.05;;;;;;;;;;5024950;28;20505;-74
2024/01/04 10:34:00;;;;;;;14.23;5.65;;;;;;;;;;5019391;28;20202;-72
2024/01/04 10:36:29;;;;;;;14.30;6.03;;;;;;;;;;5024349;28;20033;-74
2024/01/04 10:38:58;;;;;;;12.77;5.28;;;;;;;;;;5027658;28;20591;-72
2024/01/04 10:41:27;;;;;;;16.20;6.05;;;;;;;;;;5024149;28;20021;-72
2024/01/04 10:44:02;;;;;;;13.10;5.03;;;;;;;;;;5015552;28;20512;-72
2024/01/04 10:46:28;;;;;;;13.95;5.20;;;;;;;;;;5025345;28;20061;-74
2024/01/04 10:48:54;;;;;;;15.05;4.70;;;;;;;;;;5017178;28;20527;-72
2024/01/04 10:51:21;;;;;;;13.05;5.60;;;;;;;;;;5028270;28;20124;-73
2024/01/04 10:53:47;;;;;;;13.10;5.20;;;;;;;;;;5023274;28;20076;-73
2024/01/04 10:56:14;;;;;;;13.13;4.88;;;;;;;;;;5023818;28;20151;-73
2024/01/04 10:58:41;;;;;;;13.60;4.93;;;;;;;;;;5022990;28;20032;-74
2024/01/04 11:01:07;;;;;;;11.80;4.28;;;;;;;;;;5055425;28;20506;-74
2024/01/04 11:03:33;;;;;;;11.95;5.18;;;;;;;;;;5022495;28;20610;-74
2024/01/04 11:06:00;;;;;;;14.43;4.65;;;;;;;;;;5021277;28;20120;-73
2024/01/04 11:08:27;;;;;;;11.90;4.60;;;;;;;;;;5034195;28;20021;-72
2024/01/04 11:10:56;;;;;;;16.08;4.75;;;;;;;;;;5021149;28;20504;-74
2024/01/04 11:13:23;;;;;;;12.75;3.88;;;;;;;;;;5023871;28;20037;-73
2024/01/04 11:15:52;;;;;;;14.70;4.82;;;;;;;;;;5023260;28;20118;-72
2024/01/04 11:18:32;;;;;;;12.52;3.95;;;;;;;;;;5021040;28;20090;-72
2024/01/04 11:21:07;;;;;;;11.65;4.90;;;;;;;;;;5022136;28;20044;-73
2024/01/04 11:23:47;;;;;;;15.00;5.18;;;;;;;;;;5022965;28;20101;-73
2024/01/04 11:26:40;;;;;;;13.82;6.07;;;;;;;;;;5026049;28;20804;-74
2024/01/04 11:29:09;;;;;;;16.25;5.80;;;;;;;;;;5002996;28;20045;-73
2024/01/04 11:31:45;;;;;;;11.38;4.85;;;;;;;;;;5025174;28;20110;-72
2024/01/04 11:34:13;;;;;;;13.35;5.03;;;;;;;;;;5022496;28;20025;-73
2024/01/04 11:36:40;;;;;;;14.00;4.65;;;;;;;;;;5025407;28;20047;-73
2024/01/04 11:39:07;;;;;;;13.32;5.07;;;;;;;;;;5025412;28;20037;-74
2024/01/04 11:41:37;;;;;;;11.15;4.20;;;;;;;;;;5027522;28;20060;-74
2024/01/04 11:44:06;;;;;;;11.00;4.38;;;;;;;;;;5022419;28;20033;-72
2024/01/04 11:46:33;;;;;;;11.73;4.43;;;;;;;;;;5019555;28;20578;-72
2024/01/04 11:49:03;;;;;;;12.13;4.28;;;;;;;;;;5025509;28;20036;-73
2024/01/04 11:51:33;;;;;;;11.70;4.38;;;;;;;;;;5023118;28;20038;-73
2024/01/04 11:53:59;;;;;;;14.05;4.80;;;;;;;;;;5025603;28;20071;-73
2024/01/04 11:56:25;;;;;;;12.45;4.60;;;;;;;;;;5026008;28;20116;-72
2024/01/04 11:58:52;;;;;;;12.38;3.92;;;;;;;;;;5019827;28;20158;-72
2024/01/04 12:01:24;;;;;;;11.38;3.78;;;;;;;;;;5024253;28;20578;-72
2024/01/04 12:03:54;;;;;;;12.10;3.95;;;;;;;;;;5021502;28;20029;-72
2024/01/04 12:06:23;;;;;;;11.50;3.78;;;;;;;;;;5020602;28;20043;-72
2024/01/04 12:08:50;;;;;;;12.57;4.20;;;;;;;;;;5017674;28;20032;-74
2024/01/04 12:11:20;;;;;;;11.90;4.13;;;;;;;;;;5021824;28;20734;-73
2024/01/04 12:13:47;;;;;;;13.32;4.70;;;;;;;;;;5032141;28;20055;-73
2024/01/04 12:16:13;;;;;;;12.23;4.60;;;;;;;;;;5019562;28;20159;-74
2024/01/04 12:18:40;;;;;;;13.57;4.60;;;;;;;;;;5023192;28;20048;-73
2024/01/04 12:21:07;;;;;;;12.88;4.90;;;;;;;;;;5018861;28;20591;-73
2024/01/04 12:23:34;;;;;;;11.85;4.25;;;;;;;;;;5021532;28;20033;-72
2024/01/04 12:26:01;;;;;;;11.35;4.63;;;;;;;;;;5023401;28;20037;-72
2024/01/04 12:28:28;;;;;;;12.93;4.55;;;;;;;;;;5023266;28;20044;-71
2024/01/04 12:30:54;;;;;;;12.38;4.25;;;;;;;;;;5024629;28;20135;-72
2024/01/04 12:33:20;;;;;;;12.60;4.70;;;;;;;;;;5024325;28;20033;-73
2024/01/04 12:35:56;;;;;;;10.50;4.40;;;;;;;;;;5020798;28;20143;-72
2024/01/04 12:38:24;;;;;;;12.88;4.40;;;;;;;;;;5023815;28;20037;-74
2024/01/04 12:40:50;;;;;;;11.77;4.28;;;;;;;;;;5021438;28;20117;-73
2024/01/04 12:43:20;;;;;;;13.80;4.35;;;;;;;;;;5023573;28;20029;-72
2024/01/04 12:46:02;;;;;;;14.45;5.10;;;;;;;;;;5022232;28;20105;-73
2024/01/04 12:48:28;;;;;;;12.82;5.13;;;;;;;;;;5025888;28;20017;-72
2024/01/04 12:50:55;;;;;;;15.73;4.70;;;;;;;;;;5023800;28;20598;-72
2024/01/04 12:53:21;;;;;;;11.25;4.55;;;;;;;;;;5026367;28;20032;-73
2024/01/04 12:55:48;;;;;;;14.70;4.45;;;;;;;;;;5034309;28;20036;-72
2024/01/04 12:58:15;;;;;;;15.10;5.20;;;;;;;;;;5027048;28;20035;-72
2024/01/04 13:00:42;;;;;;;12.27;4.72;;;;;;;;;;5025505;28;20047;-73
2024/01/04 13:03:08;;;;;;;12.80;5.30;;;;;;;;;;5027369;28;20139;-72
2024/01/04 13:05:34;;;;;;;12.90;5.05;;;;;;;;;;5027272;28;20040;-73
2024/01/04 13:08:00;;;;;;;12.27;5.25;;;;;;;;;;5023293;28;21085;-71
2024/01/04 13:10:27;;;;;;;11.35;4.75;;;;;;;;;;5016579;28;20025;-74
2024/01/04 13:12:53;;;;;;;11.52;5.00;;;;;;;;;;5014209;28;20066;-73
2024/01/04 13:15:21;;;;;;;11.70;5.07;;;;;;;;;;5016867;28;20033;-72
2024/01/04 13:17:49;;;;;;;12.10;4.88;;;;;;;;;;5013009;28;20123;-73
2024/01/04 13:20:16;;;;;;;14.30;5.30;;;;;;;;;;5016327;28;20071;-72
2024/01/04 13:22:44;;;;;;;14.25;5.90;;;;;;;;;;5012133;28;20183;-73
2024/01/04 13:25:11;;;;;;;13.80;5.18;;;;;;;;;;5031870;28;20052;-71
2024/01/04 13:27:39;;;;;;;15.38;5.47;;;;;;;;;;5015370;28;20037;-72
2024/01/04 13:30:09;;;;;;;14.82;6.18;;;;;;;;;;5015745;28;20131;-72
2024/01/04 13:32:37;;;;;;;16.75;6.63;;;;;;;;;;5027356;28;20132;-72
2024/01/04 13:35:04;;;;;;;13.05;5.80;;;;;;;;;;5013254;28;20036;-72
2024/01/04 13:37:31;;;;;;;14.70;6.30;;;;;;;;;;5016423;28;20029;-73
2024/01/04 13:39:59;;;;;;;15.73;5.63;;;;;;;;;;5013505;28;20065;-72
2024/01/04 13:42:26;;;;;;;13.60;5.15;;;;;;;;;;5018309;28;20525;-72
2024/01/04 13:44:52;;;;;;;13.27;4.90;;;;;;;;;;5011107;28;20025;-72
2024/01/04 13:47:20;;;;;;;14.13;4.40;;;;;;;;;;5031251;28;20870;-72
2024/01/04 13:49:49;;;;;;;10.65;4.05;;;;;;;;;;5015876;28;20071;-72
2024/01/04 13:52:16;;;;;;;12.45;3.83;;;;;;;;;;5018766;28;20372;-73
2024/01/04 13:54:44;;;;;;;12.70;4.95;;;;;;;;;;5019072;28;20029;-73
2024/01/04 13:57:12;;;;;;;15.77;5.20;;;;;;;;;;5015101;28;20021;-73
2024/01/04 13:59:40;;;;;;;15.10;4.97;;;;;;;;;;5016573;28;20033;-72
2024/01/04 14:02:09;;;;;;;12.90;5.28;;;;;;;;;;5016677;28;20029;-72
2024/01/04 14:04:36;;;;;;;15.98;5.72;;;;;;;;;;5017319;28;20044;-74
2024/01/04 14:07:04;;;;;;;12.93;4.93;;;;;;;;;;5015393;28;20037;-72
2024/01/04 14:09:32;;;;;;;15.43;5.65;;;;;;;;;;5017846;28;20138;-72
2024/01/04 14:12:00;;;;;;;14.35;5.60;;;;;;;;;;5014969;28;20028;-73
2024/01/04 14:14:27;;;;;;;17.63;5.93;;;;;;;;;;5020063;28;20056;-73
2024/01/04 14:16:55;;;;;;;20.10;6.78;;;;;;;;;;5020255;28;20072;-73
2024/01/04 14:19:22;;;;;;;15.43;5.68;;;;;;;;;;5017987;28;20035;-74
2024/01/04 14:21:50;;;;;;;14.90;5.30;;;;;;;;;;5028859;28;20028;-74
2024/01/04 14:24:17;;;;;;;14.18;5.28;;;;;;;;;;5017330;28;20033;-73
2024/01/04 14:26:45;;;;;;;15.15;5.47;;;;;;;;;;5013327;28;20459;-72
2024/01/04 14:29:12;;;;;;;16.55;5.22;;;;;;;;;;5016883;28;20045;-73
2024/01/04 14:31:39;;;;;;;14.63;5.43;;;;;;;;;;5018971;28;20037;-74
2024/01/04 14:34:07;;;;;;;15.15;5.93;;;;;;;;;;5014377;28;20033;-73
2024/01/04 14:36:35;;;;;;;41.03;36.75;;;;;;;;;;5013379;28;20040;-73